Time;durP1;ratioP1;P1;durP2;ratioP2;P2;SDS_P1;SDS_P2;PMS_P1;PMS_P2;Temp;Humidity;BMP_temperature;BMP_pressure;BME280_temperature;BME280_humidity;BME280_pressure;Samples;Min_cycle;Max_cycle;Signal;HPM_P1;HPM_P2
2022/12/19 00:01:39;;;;;;;;;;;-0.10;99.90;;;;;;5088782;28;20524;-77
2022/12/19 00:04:06;;;;;;;;;;;-0.10;99.90;;;;;;5070694;28;19919;-77
2022/12/19 00:06:32;;;;;;;;;;;0.00;99.90;;;;;;5089061;28;20492;-77
2022/12/19 00:08:59;;;;;;;;;;;-0.10;99.90;;;;;;5087653;28;19904;-77
2022/12/19 00:11:26;;;;;;;;;;;0.00;99.90;;;;;;5088661;28;19931;-77
2022/12/19 00:13:51;;;;;;;;;;;-0.10;99.90;;;;;;5070880;28;19935;-77
2022/12/19 00:16:19;;;;;;;;;;;0.00;99.90;;;;;;5070495;28;19907;-77
2022/12/19 00:18:45;;;;;;;;;;;-0.10;99.90;;;;;;5070250;28;19930;-77
2022/12/19 00:21:12;;;;;;;;;;;0.00;99.90;;;;;;5070408;28;20714;-78
2022/12/19 00:23:38;;;;;;;;;;;-0.10;99.90;;;;;;5088934;28;20262;-76
2022/12/19 00:26:17;;;;;;;;;;;-0.10;99.90;;;;;;5088855;28;20380;-77
2022/12/19 00:28:45;;;;;;;;;;;-0.10;99.90;;;;;;5087888;28;19904;-77
2022/12/19 00:31:10;;;;;;;;;;;-0.10;99.90;;;;;;5069494;28;19908;-77
2022/12/19 00:33:36;;;;;;;;;;;-0.10;99.90;;;;;;5087835;28;20261;-77
2022/12/19 00:36:04;;;;;;;;;;;-0.10;99.90;;;;;;5070055;28;19908;-77
2022/12/19 00:38:30;;;;;;;;;;;-0.10;99.90;;;;;;5088539;28;19904;-77
2022/12/19 00:41:28;;;;;;;;;;;-0.20;99.90;;;;;;5069509;28;19911;-77
2022/12/19 00:43:55;;;;;;;;;;;-0.10;99.90;;;;;;5036127;28;19923;-77
2022/12/19 00:46:21;;;;;;;;;;;-0.10;99.90;;;;;;5069734;28;19908;-76
2022/12/19 00:48:46;;;;;;;;;;;-0.10;99.90;;;;;;5069493;28;20383;-77
2022/12/19 00:51:14;;;;;;;;;;;0.00;99.90;;;;;;5087651;28;20015;-77
2022/12/19 00:53:39;;;;;;;;;;;0.00;99.90;;;;;;5087913;28;20387;-77
2022/12/19 00:56:06;;;;;;;;;;;0.00;99.90;;;;;;5069876;28;19938;-77
2022/12/19 00:58:32;;;;;;;;;;;0.00;99.90;;;;;;5069823;28;19908;-77
2022/12/19 01:00:57;;;;;;;;;;;0.00;99.90;;;;;;5052839;28;19935;-77
2022/12/19 01:03:24;;;;;;;;;;;0.00;99.90;;;;;;5086808;28;19916;-78
2022/12/19 01:05:51;;;;;;;;;;;-0.10;99.90;;;;;;5087910;28;19915;-77
2022/12/19 01:08:16;;;;;;;;;;;0.00;99.90;;;;;;5068918;28;20370;-76
2022/12/19 01:10:46;;;;;;;;;;;0.00;99.90;;;;;;5068904;28;19908;-77
2022/12/19 01:13:11;;;;;;;;;;;0.00;99.90;;;;;;5069844;28;19904;-77
2022/12/19 01:15:38;;;;;;;;;;;0.00;99.90;;;;;;5087251;28;19907;-77
2022/12/19 01:18:04;;;;;;;;;;;0.00;99.90;;;;;;5069198;28;19908;-76
2022/12/19 01:20:29;;;;;;;;;;;0.10;99.90;;;;;;5069047;28;19930;-77
2022/12/19 01:22:55;;;;;;;;;;;0.10;99.90;;;;;;5069510;28;19924;-77
2022/12/19 01:25:20;;;;;;;;;;;0.10;99.90;;;;;;5069027;28;20360;-77
2022/12/19 01:27:46;;;;;;;;;;;0.10;99.90;;;;;;5069248;28;20364;-77
2022/12/19 01:30:11;;;;;;;;;;;0.10;99.90;;;;;;5069538;28;19915;-78
2022/12/19 01:32:37;;;;;;;;;;;0.00;99.90;;;;;;5085685;28;19915;-77
2022/12/19 01:35:03;;;;;;;;;;;0.00;99.90;;;;;;5069248;28;19994;-77
2022/12/19 01:37:28;;;;;;;;;;;0.10;99.90;;;;;;5069166;28;20391;-76
2022/12/19 01:39:54;;;;;;;;;;;0.10;99.90;;;;;;5068827;28;19904;-77
2022/12/19 01:42:20;;;;;;;;;;;0.00;99.90;;;;;;5068621;28;19912;-77
2022/12/19 01:45:05;;;;;;;;;;;0.00;99.90;;;;;;5069282;28;19994;-78
2022/12/19 01:47:39;;;;;;;;;;;0.00;99.90;;;;;;5068416;28;19908;-77
2022/12/19 01:50:10;;;;;;;;;;;0.00;99.90;;;;;;5068936;28;19911;-77
2022/12/19 01:52:36;;;;;;;;;;;0.00;99.90;;;;;;5069032;28;19962;-76
2022/12/19 01:55:01;;;;;;;;;;;0.00;99.90;;;;;;5068988;28;19955;-78
2022/12/19 01:57:28;;;;;;;;;;;0.00;99.90;;;;;;5086626;28;20016;-78
2022/12/19 01:59:55;;;;;;;;;;;0.00;99.90;;;;;;5068891;28;19908;-77
2022/12/19 02:02:28;;;;;;;;;;;0.00;99.90;;;;;;5070463;28;19912;-77
2022/12/19 02:04:53;;;;;;;;;;;0.00;99.90;;;;;;5089824;28;19951;-77
2022/12/19 02:07:21;;;;;;;;;;;0.10;99.90;;;;;;5091106;28;19951;-77
2022/12/19 02:09:47;;;;;;;;;;;0.10;99.90;;;;;;5073289;28;19954;-77
2022/12/19 02:12:13;;;;;;;;;;;0.20;99.90;;;;;;5089400;28;19912;-77
2022/12/19 02:14:39;;;;;;;;;;;0.10;99.90;;;;;;5091160;28;19904;-77
2022/12/19 02:17:25;;;;;;;;;;;0.10;99.90;;;;;;5090524;28;19919;-77
2022/12/19 02:20:20;;;;;;;;;;;0.00;99.90;;;;;;5090734;28;20376;-77
2022/12/19 02:22:49;;;;;;;;;;;-0.10;99.90;;;;;;4999017;28;19921;-77
2022/12/19 02:25:23;;;;;;;;;;;-0.10;99.90;;;;;;5052133;28;19908;-77
2022/12/19 02:27:52;;;;;;;;;;;-0.10;99.90;;;;;;5053191;28;19908;-77
2022/12/19 02:30:36;;;;;;;;;;;-0.20;99.90;;;;;;5052188;28;20352;-78
2022/12/19 02:33:04;;;;;;;;;;;-0.20;99.90;;;;;;5052736;28;20468;-77
2022/12/19 02:35:33;;;;;;;;;;;-0.20;99.90;;;;;;5053105;28;19958;-77
2022/12/19 02:38:15;;;;;;;;;;;-0.30;99.90;;;;;;5052982;28;20002;-78
2022/12/19 02:40:47;;;;;;;;;;;-0.20;99.90;;;;;;5052521;28;20444;-77
2022/12/19 02:43:13;;;;;;;;;;;-0.20;99.90;;;;;;5051839;28;20725;-77
2022/12/19 02:45:40;;;;;;;;;;;-0.20;99.90;;;;;;5052624;28;19980;-78
2022/12/19 02:48:06;;;;;;;;;;;-0.30;99.90;;;;;;5051676;28;19913;-77
2022/12/19 02:50:36;;;;;;;;;;;-0.30;99.90;;;;;;5071204;28;20230;-77
2022/12/19 02:53:02;;;;;;;;;;;-0.20;99.90;;;;;;5069840;28;20276;-77
2022/12/19 02:55:29;;;;;;;;;;;-0.20;99.90;;;;;;5051217;28;19908;-77
2022/12/19 02:57:55;;;;;;;;;;;-0.20;99.90;;;;;;5051843;28;19924;-77
2022/12/19 03:00:22;;;;;;;;;;;-0.20;99.90;;;;;;5070016;28;19912;-77
2022/12/19 03:02:47;;;;;;;;;;;-0.20;99.90;;;;;;5051221;28;19938;-77
2022/12/19 03:05:25;;;;;;;;;;;-0.20;99.90;;;;;;5051616;28;20361;-77
2022/12/19 03:07:57;;;;;;;;;;;-0.30;99.90;;;;;;5068205;28;19999;-77
2022/12/19 03:10:33;;;;;;;;;;;-0.20;99.90;;;;;;5051799;28;19939;-77
2022/12/19 03:13:11;;;;;;;;;;;-0.30;99.90;;;;;;5067916;28;19948;-77
2022/12/19 03:15:37;;;;;;;;;;;-0.30;99.90;;;;;;5067765;28;19904;-77
2022/12/19 03:18:03;;;;;;;;;;;-0.30;99.90;;;;;;5050805;28;19909;-76
2022/12/19 03:20:32;;;;;;;;;;;-0.30;99.90;;;;;;5069756;28;19908;-78
2022/12/19 03:22:57;;;;;;;;;;;-0.40;99.90;;;;;;5070748;28;19919;-77
2022/12/19 03:25:23;;;;;;;;;;;-0.30;99.90;;;;;;5071150;28;19930;-77
2022/12/19 03:27:49;;;;;;;;;;;-0.40;99.90;;;;;;5089505;28;20349;-77
2022/12/19 03:30:15;;;;;;;;;;;-0.40;99.90;;;;;;5070601;28;19907;-77
2022/12/19 03:32:41;;;;;;;;;;;-0.30;99.90;;;;;;5088884;28;20011;-77
2022/12/19 03:35:10;;;;;;;;;;;-0.30;99.90;;;;;;5070991;28;19953;-77
2022/12/19 03:37:37;;;;;;;;;;;-0.30;99.90;;;;;;5070831;28;19969;-77
2022/12/19 03:40:07;;;;;;;;;;;-0.30;99.90;;;;;;5089041;28;19915;-76
2022/12/19 03:45:28;;;;;;;;;;;-0.40;99.90;;;;;;5089575;28;20051;-77
2022/12/19 03:47:56;;;;;;;;;;;-0.30;99.90;;;;;;5086990;28;19904;-77
2022/12/19 03:50:23;;;;;;;;;;;-0.30;99.90;;;;;;5070796;28;19908;-76
2022/12/19 03:52:56;;;;;;;;;;;-0.30;99.90;;;;;;5070925;28;19935;-78
2022/12/19 03:55:26;;;;;;;;;;;-0.30;99.90;;;;;;5070652;28;19970;-77
2022/12/19 03:57:56;;;;;;;;;;;-0.40;99.90;;;;;;5070668;28;19908;-77
2022/12/19 04:00:24;;;;;;;;;;;-0.40;99.90;;;;;;5087076;28;19908;-77
2022/12/19 04:02:51;;;;;;;;;;;-0.30;99.90;;;;;;5088378;28;19922;-77
2022/12/19 04:05:22;;;;;;;;;;;-0.40;99.90;;;;;;5070661;28;20292;-77
2022/12/19 04:07:48;;;;;;;;;;;-0.40;99.90;;;;;;5088266;28;19994;-77
2022/12/19 04:10:17;;;;;;;;;;;-0.20;99.90;;;;;;5088633;28;19969;-78
2022/12/19 04:12:58;;;;;;;;;;;-0.40;99.90;;;;;;5070454;28;19907;-77
2022/12/19 04:15:32;;;;;;;;;;;-0.40;99.90;;;;;;5088247;28;20261;-77
2022/12/19 04:17:59;;;;;;;;;;;-0.40;99.90;;;;;;5070387;28;19927;-77
2022/12/19 04:20:25;;;;;;;;;;;-0.40;99.90;;;;;;5087951;28;20628;-77
2022/12/19 04:23:06;;;;;;;;;;;-0.40;99.90;;;;;;5087918;28;20002;-77
2022/12/19 04:25:34;;;;;;;;;;;-0.50;99.90;;;;;;5069576;28;20574;-77
2022/12/19 04:28:05;;;;;;;;;;;-0.50;99.90;;;;;;5070192;28;19927;-77
2022/12/19 04:30:31;;;;;;;;;;;-0.50;99.90;;;;;;5087602;28;19910;-77
2022/12/19 04:32:57;;;;;;;;;;;-0.50;99.90;;;;;;5088206;28;19994;-77
2022/12/19 04:35:23;;;;;;;;;;;-0.50;99.90;;;;;;5069913;28;20423;-77
2022/12/19 04:37:48;;;;;;;;;;;-0.40;99.90;;;;;;5087922;28;19904;-77
2022/12/19 04:40:14;;;;;;;;;;;-0.60;99.90;;;;;;5069873;28;19908;-78
2022/12/19 04:42:39;;;;;;;;;;;-0.70;99.90;;;;;;5087979;28;19912;-78
2022/12/19 04:45:05;;;;;;;;;;;-0.70;99.90;;;;;;5087283;28;19919;-77
2022/12/19 04:47:31;;;;;;;;;;;-0.70;99.90;;;;;;5087871;28;19908;-77
2022/12/19 04:49:56;;;;;;;;;;;-0.70;99.90;;;;;;5087903;28;19957;-77
2022/12/19 04:52:22;;;;;;;;;;;-0.80;99.90;;;;;;5069702;28;19904;-77
2022/12/19 04:54:48;;;;;;;;;;;-0.80;99.90;;;;;;5087547;28;19974;-77
2022/12/19 04:57:13;;;;;;;;;;;-0.80;99.90;;;;;;5086744;28;19976;-77
2022/12/19 04:59:39;;;;;;;;;;;-0.90;99.90;;;;;;5087742;28;19914;-77
2022/12/19 05:02:06;;;;;;;;;;;-1.00;99.90;;;;;;5087140;28;19908;-77
2022/12/19 05:04:31;;;;;;;;;;;-0.90;99.90;;;;;;5069031;28;19927;-77
2022/12/19 05:06:57;;;;;;;;;;;-1.00;99.90;;;;;;5069160;28;19904;-77
2022/12/19 05:09:22;;;;;;;;;;;-1.00;99.90;;;;;;5069346;28;19910;-77
2022/12/19 05:11:48;;;;;;;;;;;-1.00;99.90;;;;;;5087566;28;19915;-77
2022/12/19 05:14:14;;;;;;;;;;;-1.10;99.90;;;;;;5087656;28;19910;-77
2022/12/19 05:16:40;;;;;;;;;;;-1.00;99.90;;;;;;5068429;28;19911;-77
2022/12/19 05:19:05;;;;;;;;;;;-0.90;99.90;;;;;;5087399;28;19912;-77
2022/12/19 05:21:31;;;;;;;;;;;-0.90;99.90;;;;;;5085233;28;20074;-77
2022/12/19 05:23:56;;;;;;;;;;;-0.90;99.90;;;;;;5086878;28;20272;-77
2022/12/19 05:26:22;;;;;;;;;;;-1.00;99.90;;;;;;5069186;28;19904;-77
2022/12/19 05:28:47;;;;;;;;;;;-0.90;99.90;;;;;;5087230;28;20304;-77
2022/12/19 05:31:15;;;;;;;;;;;-1.00;99.90;;;;;;5086570;28;19904;-77
2022/12/19 05:33:41;;;;;;;;;;;-1.00;99.90;;;;;;5068846;28;19908;-77
2022/12/19 05:36:07;;;;;;;;;;;-1.00;99.90;;;;;;5067890;28;20402;-77
2022/12/19 05:38:33;;;;;;;;;;;-1.10;99.90;;;;;;5068973;28;19908;-77
2022/12/19 05:40:58;;;;;;;;;;;-1.20;99.90;;;;;;5068973;28;19911;-78
2022/12/19 05:43:24;;;;;;;;;;;-1.10;99.90;;;;;;5068191;28;20384;-77
2022/12/19 05:45:49;;;;;;;;;;;-1.20;99.90;;;;;;5086594;28;19904;-77
2022/12/19 05:48:15;;;;;;;;;;;-1.30;99.90;;;;;;5068241;28;19998;-77
2022/12/19 05:50:45;;;;;;;;;;;-1.30;99.90;;;;;;5086994;28;19934;-77
2022/12/19 05:53:10;;;;;;;;;;;-1.40;99.90;;;;;;5069145;28;19911;-78
2022/12/19 05:55:36;;;;;;;;;;;-1.40;99.90;;;;;;5068325;28;19907;-78
2022/12/19 05:58:01;;;;;;;;;;;-1.50;99.90;;;;;;5068934;28;20296;-77
2022/12/19 06:00:27;;;;;;;;;;;-1.50;99.90;;;;;;5068092;28;19911;-77
2022/12/19 06:02:53;;;;;;;;;;;-1.50;99.90;;;;;;5068848;28;19912;-77
2022/12/19 06:05:18;;;;;;;;;;;-1.60;99.90;;;;;;5068350;28;19908;-77
2022/12/19 06:07:45;;;;;;;;;;;-1.60;99.90;;;;;;5086751;28;19904;-76
2022/12/19 06:10:10;;;;;;;;;;;-1.60;99.90;;;;;;5068353;28;19904;-77
2022/12/19 06:12:36;;;;;;;;;;;-1.60;99.90;;;;;;5085134;28;20336;-77
2022/12/19 06:15:02;;;;;;;;;;;-1.60;99.90;;;;;;5068155;28;20355;-77
2022/12/19 06:17:27;;;;;;;;;;;-1.60;99.90;;;;;;5068770;28;19918;-77
2022/12/19 06:19:53;;;;;;;;;;;-1.60;99.90;;;;;;5068426;28;20521;-77
2022/12/19 06:22:19;;;;;;;;;;;-1.60;99.90;;;;;;5086290;28;19954;-77
2022/12/19 06:24:44;;;;;;;;;;;-1.60;99.90;;;;;;5086810;28;20414;-77
2022/12/19 06:27:10;;;;;;;;;;;-1.60;99.90;;;;;;5086963;28;19934;-77
2022/12/19 06:29:35;;;;;;;;;;;-1.60;99.90;;;;;;5085709;28;19915;-77
2022/12/19 06:32:01;;;;;;;;;;;-1.60;99.90;;;;;;5068309;28;20361;-77
2022/12/19 06:34:26;;;;;;;;;;;-1.60;99.90;;;;;;5086637;28;20287;-77
2022/12/19 06:36:52;;;;;;;;;;;-1.60;99.90;;;;;;5085190;28;20415;-77
2022/12/19 06:39:17;;;;;;;;;;;-1.60;99.90;;;;;;5085236;28;19915;-77
2022/12/19 06:44:27;;;;;;;;;;;-1.60;99.90;;;;;;5086314;28;19923;-77
2022/12/19 06:46:52;;;;;;;;;;;-1.60;99.90;;;;;;5086728;28;20284;-78
2022/12/19 06:49:18;;;;;;;;;;;-1.60;99.90;;;;;;5071227;28;19908;-77
2022/12/19 06:51:44;;;;;;;;;;;-1.50;99.90;;;;;;5090054;28;19953;-77
2022/12/19 06:54:10;;;;;;;;;;;-1.50;99.90;;;;;;5090378;28;19908;-77
2022/12/19 06:56:36;;;;;;;;;;;-1.50;99.90;;;;;;5071182;28;19912;-77
2022/12/19 06:59:01;;;;;;;;;;;-1.50;99.90;;;;;;5071718;28;20372;-77
2022/12/19 07:01:30;;;;;;;;;;;-1.40;99.90;;;;;;5071329;28;19990;-77
2022/12/19 07:03:55;;;;;;;;;;;-1.40;99.90;;;;;;5089980;28;19920;-77
2022/12/19 07:06:22;;;;;;;;;;;-1.30;99.90;;;;;;5088039;28;19915;-77
2022/12/19 07:08:47;;;;;;;;;;;-1.30;99.90;;;;;;5071384;28;19942;-77
2022/12/19 07:11:13;;;;;;;;;;;-1.10;99.90;;;;;;5089903;28;20717;-77
2022/12/19 07:13:39;;;;;;;;;;;-1.20;99.90;;;;;;5088865;28;19908;-77
2022/12/19 07:16:05;;;;;;;;;;;-1.10;99.90;;;;;;5071684;28;20030;-77
2022/12/19 07:18:33;;;;;;;;;;;-1.10;99.90;;;;;;5071031;28;20002;-77
2022/12/19 07:20:59;;;;;;;;;;;-1.10;99.90;;;;;;5070993;28;19938;-76
2022/12/19 07:23:25;;;;;;;;;;;-1.10;99.90;;;;;;5071096;28;19958;-77
2022/12/19 07:25:50;;;;;;;;;;;-1.00;99.90;;;;;;5071283;28;20334;-77
2022/12/19 07:28:16;;;;;;;;;;;-0.90;99.90;;;;;;5070863;28;20366;-77
2022/12/19 07:30:42;;;;;;;;;;;-0.90;99.90;;;;;;5071246;28;20365;-77
2022/12/19 07:33:07;;;;;;;;;;;-0.80;99.90;;;;;;5088229;28;19911;-77
2022/12/19 07:35:33;;;;;;;;;;;-0.80;99.90;;;;;;5071010;28;19994;-77
2022/12/19 07:38:02;;;;;;;;;;;-0.70;99.90;;;;;;5089177;28;19943;-77
2022/12/19 07:40:30;;;;;;;;;;;-0.60;99.90;;;;;;5089499;28;19920;-77
2022/12/19 07:42:59;;;;;;;;;;;-0.50;99.90;;;;;;5071122;28;19937;-77
2022/12/19 07:45:25;;;;;;;;;;;-0.40;99.90;;;;;;5069940;28;19908;-76
2022/12/19 07:47:50;;;;;;;;;;;-0.40;99.90;;;;;;5070988;28;19969;-77
2022/12/19 07:50:16;;;;;;;;;;;-0.40;99.90;;;;;;5070252;28;19904;-77
2022/12/19 07:52:41;;;;;;;;;;;-0.40;99.90;;;;;;5071115;28;19954;-76
2022/12/19 07:55:07;;;;;;;;;;;-0.50;99.90;;;;;;5070378;28;19908;-77
2022/12/19 07:57:33;;;;;;;;;;;-0.40;99.90;;;;;;5070949;28;20265;-77
2022/12/19 07:59:59;;;;;;;;;;;-0.30;99.90;;;;;;5087539;28;19954;-77
2022/12/19 08:02:24;;;;;;;;;;;-0.20;99.90;;;;;;5070626;28;19927;-77
2022/12/19 08:04:50;;;;;;;;;;;-0.10;99.90;;;;;;5087590;28;19912;-77
2022/12/19 08:07:15;;;;;;;;;;;0.00;99.90;;;;;;5089072;28;20360;-76
2022/12/19 08:09:41;;;;;;;;;;;0.10;99.90;;;;;;5070294;28;19915;-77
2022/12/19 08:12:06;;;;;;;;;;;0.10;99.90;;;;;;5070393;28;20458;-77
2022/12/19 08:14:32;;;;;;;;;;;0.20;99.90;;;;;;5070194;28;19911;-77
2022/12/19 08:16:57;;;;;;;;;;;0.40;99.90;;;;;;5088145;28;20288;-77
2022/12/19 08:19:23;;;;;;;;;;;0.30;99.90;;;;;;5070370;28;20360;-77
2022/12/19 08:21:48;;;;;;;;;;;0.40;99.90;;;;;;5087912;28;19927;-78
2022/12/19 08:24:14;;;;;;;;;;;0.40;99.90;;;;;;5088273;28;19912;-77
2022/12/19 08:26:40;;;;;;;;;;;0.50;99.90;;;;;;5070172;28;19915;-77
2022/12/19 08:29:05;;;;;;;;;;;0.60;99.90;;;;;;5069410;28;20402;-77
2022/12/19 08:31:31;;;;;;;;;;;0.60;99.90;;;;;;5086828;28;19908;-77
2022/12/19 08:33:57;;;;;;;;;;;0.50;99.90;;;;;;5069894;28;20003;-77
2022/12/19 08:36:23;;;;;;;;;;;0.50;99.90;;;;;;5069778;28;20048;-77
2022/12/19 08:38:48;;;;;;;;;;;0.50;99.90;;;;;;5088140;28;20427;-77
2022/12/19 08:41:15;;;;;;;;;;;0.40;99.90;;;;;;5069879;28;19964;-77
2022/12/19 08:43:41;;;;;;;;;;;0.40;99.90;;;;;;5068652;28;20043;-76
2022/12/19 08:46:08;;;;;;;;;;;0.50;99.90;;;;;;5088223;28;20440;-77
2022/12/19 08:48:34;;;;;;;;;;;0.50;99.90;;;;;;5069968;28;19908;-77
2022/12/19 08:51:00;;;;;;;;;;;0.60;99.90;;;;;;5069430;28;20283;-76
2022/12/19 08:53:28;;;;;;;;;;;0.60;99.90;;;;;;5087686;28;19908;-77
2022/12/19 08:55:54;;;;;;;;;;;0.50;99.90;;;;;;5069834;28;19926;-76
2022/12/19 08:58:20;;;;;;;;;;;0.40;99.90;;;;;;5087353;28;19915;-77
2022/12/19 09:00:46;;;;;;;;;;;0.40;99.90;;;;;;5069129;28;19911;-78
2022/12/19 09:03:11;;;;;;;;;;;0.50;99.90;;;;;;5069754;28;19959;-77
2022/12/19 09:05:37;;;;;;;;;;;0.60;99.90;;;;;;5069244;28;19914;-76
2022/12/19 09:08:03;;;;;;;;;;;0.20;99.90;;;;;;5085828;28;19908;-77
2022/12/19 09:10:30;;;;;;;;;;;0.20;99.90;;;;;;5069295;28;19952;-77
2022/12/19 09:12:55;;;;;;;;;;;0.20;99.90;;;;;;5068545;28;20403;-76
2022/12/19 09:15:21;;;;;;;;;;;0.00;99.90;;;;;;5087918;28;19934;-77
2022/12/19 09:17:47;;;;;;;;;;;0.00;99.90;;;;;;5068760;28;19961;-77
2022/12/19 09:20:12;;;;;;;;;;;-0.20;99.90;;;;;;5087141;28;19908;-77
2022/12/19 09:22:38;;;;;;;;;;;-0.20;99.90;;;;;;5069040;28;19969;-77
2022/12/19 09:25:04;;;;;;;;;;;-0.20;99.90;;;;;;5068746;28;19915;-77
2022/12/19 09:27:29;;;;;;;;;;;-0.30;99.90;;;;;;5068685;28;19908;-77
2022/12/19 09:29:55;;;;;;;;;;;-0.30;99.90;;;;;;5087328;28;19911;-77
2022/12/19 09:32:20;;;;;;;;;;;-0.30;99.90;;;;;;5087321;28;19907;-77
2022/12/19 09:34:46;;;;;;;;;;;-0.40;99.90;;;;;;5086006;28;19912;-77
2022/12/19 09:37:11;;;;;;;;;;;-0.40;99.90;;;;;;5068976;28;19915;-76
2022/12/19 09:39:37;;;;;;;;;;;-0.40;99.90;;;;;;5068604;28;19904;-77
2022/12/19 09:42:05;;;;;;;;;;;-0.20;99.90;;;;;;5068125;28;19965;-77
2022/12/19 09:44:51;;;;;;;;;;;-0.30;99.90;;;;;;5068718;28;19904;-77
2022/12/19 09:47:17;;;;;;;;;;;-0.20;99.90;;;;;;5068893;28;19978;-77
2022/12/19 09:49:44;;;;;;;;;;;-0.20;99.90;;;;;;5086848;28;20454;-77
2022/12/19 09:52:12;;;;;;;;;;;-0.30;99.90;;;;;;5068503;28;20359;-77
2022/12/19 09:55:01;;;;;;;;;;;-0.30;99.90;;;;;;5086802;28;19911;-77
2022/12/19 09:57:29;;;;;;;;;;;-0.30;99.90;;;;;;5077649;28;19919;-77
2022/12/19 09:59:57;;;;;;;;;;;-0.30;99.90;;;;;;5068385;28;19927;-77
2022/12/19 10:02:22;;;;;;;;;;;-0.20;99.90;;;;;;5086872;28;19916;-76
2022/12/19 10:04:50;;;;;;;;;;;-0.20;99.90;;;;;;5085423;28;20291;-77
2022/12/19 10:07:17;;;;;;;;;;;-0.30;99.90;;;;;;5087019;28;19914;-77
2022/12/19 10:09:43;;;;;;;;;;;-0.20;99.90;;;;;;5068476;28;20751;-77
2022/12/19 10:12:27;;;;;;;;;;;-0.20;99.90;;;;;;5067554;28;20030;-77
2022/12/19 10:15:00;;;;;;;;;;;-0.20;99.90;;;;;;5068611;28;19913;-77
2022/12/19 10:17:31;;;;;;;;;;;-0.30;99.90;;;;;;5086631;28;19914;-77
2022/12/19 10:19:56;;;;;;;;;;;-0.20;99.90;;;;;;5068637;28;19908;-77
2022/12/19 10:22:26;;;;;;;;;;;-0.20;99.90;;;;;;5068541;28;20274;-77
2022/12/19 10:24:52;;;;;;;;;;;-0.20;99.90;;;;;;5072496;28;19962;-77
2022/12/19 10:27:41;;;;;;;;;;;-0.20;99.90;;;;;;5071472;28;19908;-77
2022/12/19 10:30:11;;;;;;;;;;;-0.10;99.90;;;;;;5066591;28;20043;-75
2022/12/19 10:32:43;;;;;;;;;;;-0.20;99.90;;;;;;5072445;28;19907;-77
2022/12/19 10:35:13;;;;;;;;;;;-0.10;99.90;;;;;;5089252;28;19904;-77
2022/12/19 10:37:55;;;;;;;;;;;-0.10;99.90;;;;;;5072314;28;19908;-77
2022/12/19 10:40:36;;;;;;;;;;;0.00;99.90;;;;;;5071935;28;20368;-77
2022/12/19 10:43:09;;;;;;;;;;;0.00;99.90;;;;;;5071559;28;19923;-77
2022/12/19 10:45:37;;;;;;;;;;;0.10;99.90;;;;;;5071974;28;19981;-77
2022/12/19 10:48:03;;;;;;;;;;;0.10;99.90;;;;;;5072253;28;19912;-77
2022/12/19 10:50:29;;;;;;;;;;;0.20;99.90;;;;;;5090039;28;19914;-77
2022/12/19 10:53:06;;;;;;;;;;;0.20;99.90;;;;;;5071934;28;19915;-77
2022/12/19 10:55:31;;;;;;;;;;;0.20;99.90;;;;;;5090274;28;19904;-78
2022/12/19 10:57:58;;;;;;;;;;;0.20;99.90;;;;;;5089679;28;19939;-77
2022/12/19 11:00:24;;;;;;;;;;;0.10;99.90;;;;;;5089828;28;20384;-76
2022/12/19 11:02:52;;;;;;;;;;;0.10;99.90;;;;;;5071483;28;19923;-77
2022/12/19 11:05:22;;;;;;;;;;;0.20;99.90;;;;;;5088790;28;20377;-76
2022/12/19 11:08:06;;;;;;;;;;;0.10;99.90;;;;;;5071585;28;19911;-77
2022/12/19 11:10:40;;;;;;;;;;;0.20;99.90;;;;;;5071699;28;19908;-77
2022/12/19 11:13:19;;;;;;;;;;;0.10;99.90;;;;;;5070827;28;19913;-77
2022/12/19 11:15:47;;;;;;;;;;;0.10;99.90;;;;;;5071214;28;19904;-76
2022/12/19 11:18:13;;;;;;;;;;;0.00;99.90;;;;;;5071412;28;19904;-77
2022/12/19 11:20:38;;;;;;;;;;;0.00;99.90;;;;;;5071185;28;19972;-76
2022/12/19 11:23:04;;;;;;;;;;;0.00;99.90;;;;;;5087853;28;19916;-76
2022/12/19 11:25:40;;;;;;;;;;;0.10;99.90;;;;;;5088924;28;20257;-77
2022/12/19 11:28:12;;;;;;;;;;;-0.10;99.90;;;;;;5069266;28;20443;-77
2022/12/19 11:30:39;;;;;;;;;;;-0.10;99.90;;;;;;5070710;28;20278;-77
2022/12/19 11:33:12;;;;;;;;;;;0.00;99.90;;;;;;5070850;28;19908;-77
2022/12/19 11:35:45;;;;;;;;;;;0.10;99.90;;;;;;5069765;28;20388;-77
2022/12/19 11:38:12;;;;;;;;;;;0.20;99.90;;;;;;5070945;28;19915;-77
2022/12/19 11:40:50;;;;;;;;;;;0.30;99.90;;;;;;5070419;28;19908;-77
2022/12/19 11:43:36;;;;;;;;;;;0.30;99.90;;;;;;5071097;28;19933;-77
2022/12/19 11:46:07;;;;;;;;;;;0.20;99.90;;;;;;5088963;28;20513;-76
2022/12/19 11:48:32;;;;;;;;;;;0.30;99.90;;;;;;5070985;28;19907;-77
2022/12/19 11:51:06;;;;;;;;;;;0.30;99.90;;;;;;5071251;28;19908;-77
2022/12/19 11:53:34;;;;;;;;;;;0.20;99.90;;;;;;5070791;28;20332;-77
2022/12/19 11:56:21;;;;;;;;;;;0.20;99.90;;;;;;5088601;28;19907;-77
2022/12/19 11:59:01;;;;;;;;;;;0.20;99.90;;;;;;5070854;28;19912;-77
2022/12/19 12:01:53;;;;;;;;;;;0.30;99.90;;;;;;5089190;28;19908;-77
2022/12/19 12:04:22;;;;;;;;;;;0.20;99.90;;;;;;5068208;28;19923;-77
2022/12/19 12:06:50;;;;;;;;;;;0.20;99.90;;;;;;5088867;28;19966;-77
2022/12/19 12:09:22;;;;;;;;;;;0.20;99.90;;;;;;5087516;28;19908;-77
2022/12/19 12:11:48;;;;;;;;;;;0.20;99.90;;;;;;5088108;28;19908;-77
2022/12/19 12:14:16;;;;;;;;;;;0.30;99.90;;;;;;5070230;28;19915;-77
2022/12/19 12:17:00;;;;;;;;;;;0.10;99.90;;;;;;5088750;28;19908;-77
2022/12/19 12:19:35;;;;;;;;;;;0.20;99.90;;;;;;5069814;28;20693;-77
2022/12/19 12:22:17;;;;;;;;;;;0.30;99.90;;;;;;5088482;28;19927;-77
2022/12/19 12:25:02;;;;;;;;;;;0.30;99.90;;;;;;5071176;28;19919;-76
2022/12/19 12:27:34;;;;;;;;;;;0.20;99.90;;;;;;5069962;28;20287;-77
2022/12/19 12:30:02;;;;;;;;;;;0.10;99.90;;;;;;5069936;28;20022;-77
2022/12/19 12:32:31;;;;;;;;;;;0.10;99.90;;;;;;5088538;28;20386;-77
2022/12/19 12:34:56;;;;;;;;;;;0.10;99.90;;;;;;5088571;28;19912;-77
2022/12/19 12:37:41;;;;;;;;;;;0.10;99.90;;;;;;5087891;28;20022;-76
2022/12/19 12:40:09;;;;;;;;;;;0.20;99.90;;;;;;5087291;28;20767;-77
2022/12/19 12:42:38;;;;;;;;;;;0.30;99.90;;;;;;5069824;28;20007;-78
2022/12/19 12:45:15;;;;;;;;;;;0.20;99.90;;;;;;5069474;28;19916;-77
2022/12/19 12:47:41;;;;;;;;;;;0.00;99.90;;;;;;5069041;28;19908;-77
2022/12/19 12:50:12;;;;;;;;;;;0.00;99.90;;;;;;5069870;28;20326;-77
2022/12/19 12:52:39;;;;;;;;;;;0.10;99.90;;;;;;5069313;28;19904;-77
2022/12/19 12:55:12;;;;;;;;;;;0.10;99.90;;;;;;5069542;28;19949;-77
2022/12/19 12:57:38;;;;;;;;;;;0.10;99.90;;;;;;5069476;28;19977;-76
2022/12/19 13:00:18;;;;;;;;;;;0.10;99.90;;;;;;5087629;28;19908;-77
2022/12/19 13:02:52;;;;;;;;;;;0.10;99.90;;;;;;5087398;28;20376;-76
2022/12/19 13:05:21;;;;;;;;;;;0.20;99.90;;;;;;5069481;28;19908;-77
2022/12/19 13:07:51;;;;;;;;;;;0.10;99.90;;;;;;5086288;28;20022;-76
2022/12/19 13:10:22;;;;;;;;;;;0.10;99.90;;;;;;5087029;28;19908;-77
2022/12/19 13:13:00;;;;;;;;;;;0.10;99.90;;;;;;5087626;28;19908;-77
2022/12/19 13:15:25;;;;;;;;;;;0.20;99.90;;;;;;5069271;28;20376;-75
2022/12/19 13:17:51;;;;;;;;;;;0.20;99.90;;;;;;5087311;28;19915;-77
2022/12/19 13:20:16;;;;;;;;;;;0.20;99.90;;;;;;5087122;28;19915;-76
2022/12/19 13:22:43;;;;;;;;;;;0.20;99.90;;;;;;5069078;28;19923;-77
2022/12/19 13:25:25;;;;;;;;;;;0.20;99.90;;;;;;5068775;28;19924;-76
2022/12/19 13:27:57;;;;;;;;;;;0.20;99.90;;;;;;5069208;28;19919;-77
2022/12/19 13:30:23;;;;;;;;;;;0.20;99.90;;;;;;5069092;28;19939;-77
2022/12/19 13:32:49;;;;;;;;;;;0.20;99.90;;;;;;5068798;28;19954;-77
2022/12/19 13:35:18;;;;;;;;;;;0.00;99.90;;;;;;5087069;28;19948;-77
2022/12/19 13:38:09;;;;;;;;;;;-0.10;99.90;;;;;;5087243;28;20511;-76
2022/12/19 13:40:41;;;;;;;;;;;-0.10;99.90;;;;;;5052980;28;19907;-77
2022/12/19 13:45:55;;;;;;;;;;;-0.10;99.90;;;;;;5087489;28;19911;-77
2022/12/19 13:48:26;;;;;;;;;;;-0.10;99.90;;;;;;5069192;28;20513;-75
2022/12/19 13:50:52;;;;;;;;;;;-0.10;99.90;;;;;;5086837;28;20030;-77
2022/12/19 13:53:18;;;;;;;;;;;-0.10;99.90;;;;;;5085454;28;20432;-77
2022/12/19 13:55:44;;;;;;;;;;;-0.10;99.90;;;;;;5068464;28;19908;-76
2022/12/19 13:58:20;;;;;;;;;;;-0.30;99.90;;;;;;5086103;28;20649;-76
2022/12/19 14:00:46;;;;;;;;;;;-0.20;99.90;;;;;;5087344;28;19908;-76
2022/12/19 14:03:16;;;;;;;;;;;-0.20;99.90;;;;;;5085352;28;19912;-77
2022/12/19 14:05:42;;;;;;;;;;;-0.10;99.90;;;;;;5085501;28;19904;-76
2022/12/19 14:08:08;;;;;;;;;;;-0.30;99.90;;;;;;5086712;28;20392;-77
2022/12/19 14:10:35;;;;;;;;;;;-0.40;99.90;;;;;;5067779;28;19904;-76
2022/12/19 14:15:57;;;;;;;;;;;-0.50;99.90;;;;;;5087040;28;19950;-75
2022/12/19 14:18:27;;;;;;;;;;;-0.50;99.90;;;;;;5086630;28;20399;-77
2022/12/19 14:21:11;;;;;;;;;;;-0.50;99.90;;;;;;5068073;28;19908;-77
2022/12/19 14:23:37;;;;;;;;;;;-0.50;99.90;;;;;;5085071;28;19923;-76
2022/12/19 14:26:03;;;;;;;;;;;-0.50;99.90;;;;;;5068997;28;19954;-76
2022/12/19 14:28:43;;;;;;;;;;;-0.60;99.90;;;;;;5068835;28;19957;-77
2022/12/19 14:31:13;;;;;;;;;;;-0.70;99.90;;;;;;5087555;28;19935;-77
2022/12/19 14:33:41;;;;;;;;;;;-0.60;99.90;;;;;;5069212;28;19958;-76
2022/12/19 14:36:06;;;;;;;;;;;-0.70;99.90;;;;;;5087932;28;19912;-76
2022/12/19 14:38:33;;;;;;;;;;;-0.80;99.90;;;;;;5069462;28;19914;-76
2022/12/19 14:40:59;;;;;;;;;;;-0.70;99.90;;;;;;5069017;28;20448;-74